Iowa Falls, IA (50126)

5:07 PM CST on February 09, 2016 (GMT -0600)
Iowa Falls | | Change Station
CLOSE
Current Station
Personal Weather Station
Location: Iowa Falls, IA
Elevation: 1129 ft
Nearby Weather Stations

Elev 1129 ft 42.53 °N, 93.26 °W | Updated 13 seconds ago

Clear
Clear
14.5 °F
Feels Like 4 °F
N
7.4
Wind Variable Wind from WSW
Gusts 9.8 mph

Today
High -- | Low -- °F
--% Chance of Precip.
Yesterday
High -- | Low -- °F
Precip. -- in
Pressure 30.11 in
Visibility 10.0 miles
Clouds Clear
Windchill 4 °F
Dew Point 0 °F
Humidity 52%
Rainfall 0.00 in
Snow Depth Not available.
7:18 AM 5:36 PM
New Moon, 2% visible
METAR KIFA 092255Z AUTO 32022G25KT 10SM CLR M10/M14 A3011 RMK AO2 T10971140
Pressure 30.11 in
Visibility 10.0 miles
Clouds Clear
Windchill 4 °F
Dew Point 0 °F
Humidity 52%
Rainfall 0.00 in
Snow Depth Not available.
7:18 AM 5:36 PM
New Moon, 2% visible
METAR KIFA 092255Z AUTO 32022G25KT 10SM CLR M10/M14 A3011 RMK AO2 T10971140

10-Day Weather Forecast

Almanac

Astronomy

Feb. 09, 2016 Rise Set
Actual Time
Civil Twilight
Nautical Twilight
Astronomical Twilight
Moon
Length of Visible Light
Length of Day
Tomorrow will be .
, % of the Moon is Illuminated

Today's Extremes

State Highs State Lows

Community

WunderPhotos

Upload Photos

1,891,728 photos uploaded!

WunderBlog® & News

Nearby

Air Quality

  Air Quality AQ Index Pollutant
Not available.

Snow Depth

Station Depth Elevation

Earthquake Activity

City Distance Mag. Time & Date
Minimum magnitude displayed is 2.5.

Coastal Water Temperatures

Place Temperature

Stations

Nearby Weather Stations

Station Location Temp. Windchill Dew Point Humidity Wind Precip. Elev Updated Type
                   

Watches & Warnings

There are currently no watches in effect.